sensor_id;sensor_type;location;lat;lon;timestamp;P1;durP1;ratioP1;P2;durP2;ratioP2
4634;SDS011;2330;48.158;11.816;2023-05-29T00:01:38;9.23;;;5.90;;
4634;SDS011;2330;48.158;11.816;2023-05-29T00:04:06;6.33;;;4.90;;
4634;SDS011;2330;48.158;11.816;2023-05-29T00:06:34;11.23;;;6.83;;
4634;SDS011;2330;48.158;11.816;2023-05-29T00:09:02;6.20;;;5.60;;
4634;SDS011;2330;48.158;11.816;2023-05-29T00:11:30;6.30;;;5.17;;
4634;SDS011;2330;48.158;11.816;2023-05-29T00:13:57;8.23;;;5.80;;
4634;SDS011;2330;48.158;11.816;2023-05-29T00:16:24;7.30;;;6.00;;
4634;SDS011;2330;48.158;11.816;2023-05-29T00:18:51;7.97;;;6.47;;
4634;SDS011;2330;48.158;11.816;2023-05-29T00:21:18;12.50;;;6.23;;
4634;SDS011;2330;48.158;11.816;2023-05-29T00:23:45;7.60;;;5.47;;
4634;SDS011;2330;48.158;11.816;2023-05-29T00:26:12;5.80;;;4.90;;
4634;SDS011;2330;48.158;11.816;2023-05-29T00:28:40;7.37;;;5.73;;
4634;SDS011;2330;48.158;11.816;2023-05-29T00:31:06;5.53;;;5.00;;
4634;SDS011;2330;48.158;11.816;2023-05-29T00:33:33;7.90;;;4.90;;
4634;SDS011;2330;48.158;11.816;2023-05-29T00:36:00;10.00;;;5.70;;
4634;SDS011;2330;48.158;11.816;2023-05-29T00:38:27;6.10;;;5.40;;
4634;SDS011;2330;48.158;11.816;2023-05-29T00:40:54;7.43;;;5.07;;
4634;SDS011;2330;48.158;11.816;2023-05-29T00:43:21;6.40;;;5.30;;
4634;SDS011;2330;48.158;11.816;2023-05-29T00:45:47;7.40;;;5.13;;
4634;SDS011;2330;48.158;11.816;2023-05-29T00:48:15;6.67;;;5.97;;
4634;SDS011;2330;48.158;11.816;2023-05-29T00:50:43;6.43;;;5.83;;
4634;SDS011;2330;48.158;11.816;2023-05-29T00:53:10;8.70;;;6.10;;
4634;SDS011;2330;48.158;11.816;2023-05-29T00:55:38;9.23;;;5.70;;
4634;SDS011;2330;48.158;11.816;2023-05-29T00:58:05;5.83;;;5.23;;
4634;SDS011;2330;48.158;11.816;2023-05-29T01:00:32;6.63;;;5.50;;
4634;SDS011;2330;48.158;11.816;2023-05-29T01:03:02;7.97;;;5.97;;
4634;SDS011;2330;48.158;11.816;2023-05-29T01:05:33;5.97;;;5.10;;
4634;SDS011;2330;48.158;11.816;2023-05-29T01:08:01;5.50;;;4.50;;
4634;SDS011;2330;48.158;11.816;2023-05-29T01:10:29;7.60;;;5.63;;
4634;SDS011;2330;48.158;11.816;2023-05-29T01:13:08;5.37;;;4.77;;
4634;SDS011;2330;48.158;11.816;2023-05-29T01:15:41;8.60;;;6.07;;
4634;SDS011;2330;48.158;11.816;2023-05-29T01:18:51;6.57;;;4.97;;
4634;SDS011;2330;48.158;11.816;2023-05-29T01:24:26;8.50;;;5.33;;
4634;SDS011;2330;48.158;11.816;2023-05-29T01:27:03;11.30;;;4.87;;
4634;SDS011;2330;48.158;11.816;2023-05-29T01:29:32;6.27;;;4.90;;
4634;SDS011;2330;48.158;11.816;2023-05-29T01:32:01;5.37;;;4.83;;
4634;SDS011;2330;48.158;11.816;2023-05-29T01:34:28;6.83;;;5.40;;
4634;SDS011;2330;48.158;11.816;2023-05-29T01:36:55;5.30;;;4.43;;
4634;SDS011;2330;48.158;11.816;2023-05-29T01:39:23;5.17;;;4.63;;
4634;SDS011;2330;48.158;11.816;2023-05-29T01:41:51;6.37;;;5.40;;
4634;SDS011;2330;48.158;11.816;2023-05-29T01:44:18;11.30;;;4.97;;
4634;SDS011;2330;48.158;11.816;2023-05-29T01:46:47;4.93;;;4.40;;
4634;SDS011;2330;48.158;11.816;2023-05-29T01:49:15;7.80;;;4.80;;
4634;SDS011;2330;48.158;11.816;2023-05-29T01:51:43;6.67;;;5.10;;
4634;SDS011;2330;48.158;11.816;2023-05-29T01:54:10;6.13;;;4.93;;
4634;SDS011;2330;48.158;11.816;2023-05-29T01:56:37;5.20;;;4.70;;
4634;SDS011;2330;48.158;11.816;2023-05-29T01:59:04;6.73;;;5.40;;
4634;SDS011;2330;48.158;11.816;2023-05-29T02:01:32;4.53;;;4.10;;
4634;SDS011;2330;48.158;11.816;2023-05-29T02:03:59;6.80;;;4.63;;
4634;SDS011;2330;48.158;11.816;2023-05-29T02:06:26;5.80;;;5.20;;
4634;SDS011;2330;48.158;11.816;2023-05-29T02:08:53;5.40;;;4.70;;
4634;SDS011;2330;48.158;11.816;2023-05-29T02:11:20;7.97;;;5.53;;
4634;SDS011;2330;48.158;11.816;2023-05-29T02:13:48;7.57;;;5.17;;
4634;SDS011;2330;48.158;11.816;2023-05-29T02:16:14;7.20;;;4.90;;
4634;SDS011;2330;48.158;11.816;2023-05-29T02:18:43;5.77;;;5.03;;
4634;SDS011;2330;48.158;11.816;2023-05-29T02:21:10;5.70;;;5.10;;
4634;SDS011;2330;48.158;11.816;2023-05-29T02:23:37;7.60;;;6.07;;
4634;SDS011;2330;48.158;11.816;2023-05-29T02:26:04;8.17;;;6.10;;
4634;SDS011;2330;48.158;11.816;2023-05-29T02:28:31;5.30;;;4.80;;
4634;SDS011;2330;48.158;11.816;2023-05-29T02:30:58;5.60;;;4.90;;
4634;SDS011;2330;48.158;11.816;2023-05-29T02:33:24;4.77;;;4.33;;
4634;SDS011;2330;48.158;11.816;2023-05-29T02:35:51;6.93;;;5.20;;
4634;SDS011;2330;48.158;11.816;2023-05-29T02:38:18;6.03;;;4.90;;
4634;SDS011;2330;48.158;11.816;2023-05-29T02:40:45;6.27;;;5.00;;
4634;SDS011;2330;48.158;11.816;2023-05-29T02:43:12;6.03;;;5.00;;
4634;SDS011;2330;48.158;11.816;2023-05-29T02:45:40;6.40;;;5.60;;
4634;SDS011;2330;48.158;11.816;2023-05-29T02:48:07;5.30;;;4.80;;
4634;SDS011;2330;48.158;11.816;2023-05-29T02:50:34;5.90;;;5.30;;
4634;SDS011;2330;48.158;11.816;2023-05-29T02:53:01;7.37;;;5.57;;
4634;SDS011;2330;48.158;11.816;2023-05-29T02:55:28;8.10;;;5.43;;
4634;SDS011;2330;48.158;11.816;2023-05-29T02:57:55;5.80;;;5.20;;
4634;SDS011;2330;48.158;11.816;2023-05-29T03:00:22;6.00;;;5.27;;
4634;SDS011;2330;48.158;11.816;2023-05-29T03:02:49;5.17;;;4.67;;
4634;SDS011;2330;48.158;11.816;2023-05-29T03:05:16;5.67;;;4.50;;
4634;SDS011;2330;48.158;11.816;2023-05-29T03:07:43;5.57;;;4.90;;
4634;SDS011;2330;48.158;11.816;2023-05-29T03:10:10;10.43;;;5.50;;
4634;SDS011;2330;48.158;11.816;2023-05-29T03:12:37;8.40;;;5.80;;
4634;SDS011;2330;48.158;11.816;2023-05-29T03:15:05;7.87;;;5.30;;
4634;SDS011;2330;48.158;11.816;2023-05-29T03:17:32;11.60;;;5.93;;
4634;SDS011;2330;48.158;11.816;2023-05-29T03:19:59;9.03;;;6.07;;
4634;SDS011;2330;48.158;11.816;2023-05-29T03:22:27;7.80;;;5.13;;
4634;SDS011;2330;48.158;11.816;2023-05-29T03:24:53;8.20;;;5.83;;
4634;SDS011;2330;48.158;11.816;2023-05-29T03:27:20;8.83;;;6.00;;
4634;SDS011;2330;48.158;11.816;2023-05-29T03:29:47;6.57;;;5.97;;
4634;SDS011;2330;48.158;11.816;2023-05-29T03:32:14;12.17;;;6.43;;
4634;SDS011;2330;48.158;11.816;2023-05-29T03:34:41;7.93;;;6.07;;
4634;SDS011;2330;48.158;11.816;2023-05-29T03:37:08;7.90;;;5.73;;
4634;SDS011;2330;48.158;11.816;2023-05-29T03:39:35;7.23;;;5.57;;
4634;SDS011;2330;48.158;11.816;2023-05-29T03:42:01;5.50;;;4.90;;
4634;SDS011;2330;48.158;11.816;2023-05-29T03:44:29;9.90;;;5.67;;
4634;SDS011;2330;48.158;11.816;2023-05-29T03:46:55;10.30;;;5.77;;
4634;SDS011;2330;48.158;11.816;2023-05-29T03:49:22;6.77;;;5.63;;
4634;SDS011;2330;48.158;11.816;2023-05-29T03:51:49;8.60;;;5.50;;
4634;SDS011;2330;48.158;11.816;2023-05-29T03:54:16;8.00;;;5.80;;
4634;SDS011;2330;48.158;11.816;2023-05-29T03:56:43;7.13;;;5.73;;
4634;SDS011;2330;48.158;11.816;2023-05-29T03:59:10;6.10;;;5.50;;
4634;SDS011;2330;48.158;11.816;2023-05-29T04:01:37;8.00;;;4.90;;
4634;SDS011;2330;48.158;11.816;2023-05-29T04:04:04;6.63;;;5.40;;
4634;SDS011;2330;48.158;11.816;2023-05-29T04:06:31;5.60;;;5.10;;
4634;SDS011;2330;48.158;11.816;2023-05-29T04:08:58;8.13;;;5.40;;
4634;SDS011;2330;48.158;11.816;2023-05-29T04:11:25;6.30;;;5.60;;
4634;SDS011;2330;48.158;11.816;2023-05-29T04:13:51;6.00;;;5.43;;
4634;SDS011;2330;48.158;11.816;2023-05-29T04:16:18;7.90;;;5.27;;
4634;SDS011;2330;48.158;11.816;2023-05-29T04:18:45;6.70;;;5.50;;
4634;SDS011;2330;48.158;11.816;2023-05-29T04:21:12;11.23;;;6.03;;
4634;SDS011;2330;48.158;11.816;2023-05-29T04:23:39;6.90;;;6.20;;
4634;SDS011;2330;48.158;11.816;2023-05-29T04:26:06;5.53;;;4.80;;
4634;SDS011;2330;48.158;11.816;2023-05-29T04:28:32;10.17;;;5.73;;
4634;SDS011;2330;48.158;11.816;2023-05-29T04:30:59;6.50;;;5.77;;
4634;SDS011;2330;48.158;11.816;2023-05-29T04:33:26;6.37;;;5.20;;
4634;SDS011;2330;48.158;11.816;2023-05-29T04:35:54;11.97;;;6.20;;
4634;SDS011;2330;48.158;11.816;2023-05-29T04:38:21;9.33;;;5.40;;
4634;SDS011;2330;48.158;11.816;2023-05-29T04:40:51;6.40;;;5.70;;
4634;SDS011;2330;48.158;11.816;2023-05-29T04:43:24;6.90;;;5.67;;
4634;SDS011;2330;48.158;11.816;2023-05-29T04:45:53;5.53;;;5.03;;
4634;SDS011;2330;48.158;11.816;2023-05-29T04:48:19;6.30;;;4.97;;
4634;SDS011;2330;48.158;11.816;2023-05-29T04:50:46;8.67;;;5.87;;
4634;SDS011;2330;48.158;11.816;2023-05-29T04:53:14;7.03;;;5.27;;
4634;SDS011;2330;48.158;11.816;2023-05-29T04:55:41;7.40;;;6.40;;
4634;SDS011;2330;48.158;11.816;2023-05-29T04:58:08;6.23;;;5.63;;
4634;SDS011;2330;48.158;11.816;2023-05-29T05:00:35;6.03;;;5.27;;
4634;SDS011;2330;48.158;11.816;2023-05-29T05:03:02;15.47;;;7.63;;
4634;SDS011;2330;48.158;11.816;2023-05-29T05:05:28;7.67;;;6.70;;
4634;SDS011;2330;48.158;11.816;2023-05-29T05:07:55;7.27;;;6.57;;
4634;SDS011;2330;48.158;11.816;2023-05-29T05:10:22;6.57;;;5.17;;
4634;SDS011;2330;48.158;11.816;2023-05-29T05:12:49;6.70;;;6.00;;
4634;SDS011;2330;48.158;11.816;2023-05-29T05:15:16;8.37;;;7.53;;
4634;SDS011;2330;48.158;11.816;2023-05-29T05:17:43;6.57;;;5.97;;
4634;SDS011;2330;48.158;11.816;2023-05-29T05:20:10;7.90;;;6.60;;
4634;SDS011;2330;48.158;11.816;2023-05-29T05:22:37;9.20;;;6.50;;
4634;SDS011;2330;48.158;11.816;2023-05-29T05:25:04;8.03;;;6.53;;
4634;SDS011;2330;48.158;11.816;2023-05-29T05:27:32;9.20;;;6.00;;
4634;SDS011;2330;48.158;11.816;2023-05-29T05:29:59;7.13;;;5.97;;
4634;SDS011;2330;48.158;11.816;2023-05-29T05:32:26;7.23;;;6.03;;
4634;SDS011;2330;48.158;11.816;2023-05-29T05:34:53;12.70;;;6.50;;
4634;SDS011;2330;48.158;11.816;2023-05-29T05:37:20;7.30;;;6.37;;
4634;SDS011;2330;48.158;11.816;2023-05-29T05:39:49;7.73;;;6.33;;
4634;SDS011;2330;48.158;11.816;2023-05-29T05:42:19;12.23;;;7.37;;
4634;SDS011;2330;48.158;11.816;2023-05-29T05:44:46;8.80;;;6.70;;
4634;SDS011;2330;48.158;11.816;2023-05-29T05:47:14;6.67;;;6.00;;
4634;SDS011;2330;48.158;11.816;2023-05-29T05:49:40;8.80;;;7.10;;
4634;SDS011;2330;48.158;11.816;2023-05-29T05:52:07;7.77;;;6.97;;
4634;SDS011;2330;48.158;11.816;2023-05-29T05:54:34;8.30;;;7.37;;
4634;SDS011;2330;48.158;11.816;2023-05-29T05:57:01;8.17;;;6.37;;
4634;SDS011;2330;48.158;11.816;2023-05-29T05:59:29;8.53;;;6.63;;
4634;SDS011;2330;48.158;11.816;2023-05-29T06:01:56;11.97;;;7.20;;
4634;SDS011;2330;48.158;11.816;2023-05-29T06:04:22;10.20;;;7.07;;
4634;SDS011;2330;48.158;11.816;2023-05-29T06:06:49;12.63;;;7.13;;
4634;SDS011;2330;48.158;11.816;2023-05-29T06:09:16;10.70;;;7.40;;
4634;SDS011;2330;48.158;11.816;2023-05-29T06:11:43;10.80;;;7.40;;
4634;SDS011;2330;48.158;11.816;2023-05-29T06:14:09;8.10;;;6.43;;
4634;SDS011;2330;48.158;11.816;2023-05-29T06:16:36;7.67;;;6.80;;
4634;SDS011;2330;48.158;11.816;2023-05-29T06:19:03;6.60;;;6.00;;
4634;SDS011;2330;48.158;11.816;2023-05-29T06:21:31;6.63;;;6.03;;
4634;SDS011;2330;48.158;11.816;2023-05-29T06:23:58;8.67;;;6.47;;
4634;SDS011;2330;48.158;11.816;2023-05-29T06:26:25;10.83;;;6.77;;
4634;SDS011;2330;48.158;11.816;2023-05-29T06:28:53;8.97;;;6.90;;
4634;SDS011;2330;48.158;11.816;2023-05-29T06:31:19;6.80;;;5.93;;
4634;SDS011;2330;48.158;11.816;2023-05-29T06:33:46;8.73;;;6.17;;
4634;SDS011;2330;48.158;11.816;2023-05-29T06:36:13;8.20;;;5.97;;
4634;SDS011;2330;48.158;11.816;2023-05-29T06:38:40;10.53;;;6.43;;
4634;SDS011;2330;48.158;11.816;2023-05-29T06:41:12;7.90;;;6.60;;
4634;SDS011;2330;48.158;11.816;2023-05-29T06:43:39;6.80;;;5.50;;
4634;SDS011;2330;48.158;11.816;2023-05-29T06:46:09;8.60;;;6.07;;
4634;SDS011;2330;48.158;11.816;2023-05-29T06:48:36;9.50;;;6.80;;
4634;SDS011;2330;48.158;11.816;2023-05-29T06:51:03;5.97;;;4.87;;
4634;SDS011;2330;48.158;11.816;2023-05-29T06:53:35;8.40;;;5.73;;
4634;SDS011;2330;48.158;11.816;2023-05-29T06:56:02;7.43;;;5.87;;
4634;SDS011;2330;48.158;11.816;2023-05-29T06:58:30;9.10;;;6.23;;
4634;SDS011;2330;48.158;11.816;2023-05-29T07:00:57;7.73;;;5.70;;
4634;SDS011;2330;48.158;11.816;2023-05-29T07:03:28;6.93;;;6.20;;
4634;SDS011;2330;48.158;11.816;2023-05-29T07:05:55;8.90;;;6.07;;
4634;SDS011;2330;48.158;11.816;2023-05-29T07:08:23;7.50;;;5.20;;
4634;SDS011;2330;48.158;11.816;2023-05-29T07:10:50;9.70;;;5.90;;
4634;SDS011;2330;48.158;11.816;2023-05-29T07:13:17;8.40;;;5.70;;
4634;SDS011;2330;48.158;11.816;2023-05-29T07:15:44;11.00;;;5.77;;
4634;SDS011;2330;48.158;11.816;2023-05-29T07:18:11;9.10;;;5.17;;
4634;SDS011;2330;48.158;11.816;2023-05-29T07:20:38;5.27;;;4.77;;
4634;SDS011;2330;48.158;11.816;2023-05-29T07:23:05;6.00;;;5.00;;
4634;SDS011;2330;48.158;11.816;2023-05-29T07:25:32;6.20;;;5.50;;
4634;SDS011;2330;48.158;11.816;2023-05-29T07:27:59;7.30;;;5.30;;
4634;SDS011;2330;48.158;11.816;2023-05-29T07:30:46;8.83;;;5.40;;
4634;SDS011;2330;48.158;11.816;2023-05-29T07:33:13;9.10;;;5.90;;
4634;SDS011;2330;48.158;11.816;2023-05-29T07:35:39;8.97;;;5.70;;
4634;SDS011;2330;48.158;11.816;2023-05-29T07:38:06;8.83;;;5.83;;
4634;SDS011;2330;48.158;11.816;2023-05-29T07:40:33;6.57;;;5.47;;
4634;SDS011;2330;48.158;11.816;2023-05-29T07:43:00;8.63;;;5.67;;
4634;SDS011;2330;48.158;11.816;2023-05-29T07:45:27;7.00;;;5.40;;
4634;SDS011;2330;48.158;11.816;2023-05-29T07:47:53;10.47;;;6.40;;
4634;SDS011;2330;48.158;11.816;2023-05-29T07:50:21;8.90;;;5.83;;
4634;SDS011;2330;48.158;11.816;2023-05-29T07:52:47;7.10;;;5.33;;
4634;SDS011;2330;48.158;11.816;2023-05-29T07:55:14;8.00;;;5.43;;
4634;SDS011;2330;48.158;11.816;2023-05-29T07:57:41;6.63;;;5.00;;
4634;SDS011;2330;48.158;11.816;2023-05-29T08:00:08;6.73;;;5.60;;
4634;SDS011;2330;48.158;11.816;2023-05-29T08:02:40;7.93;;;5.20;;
4634;SDS011;2330;48.158;11.816;2023-05-29T08:05:08;10.10;;;5.70;;
4634;SDS011;2330;48.158;11.816;2023-05-29T08:07:36;5.80;;;4.80;;
4634;SDS011;2330;48.158;11.816;2023-05-29T08:10:03;10.50;;;5.27;;
4634;SDS011;2330;48.158;11.816;2023-05-29T08:12:31;9.60;;;5.03;;
4634;SDS011;2330;48.158;11.816;2023-05-29T08:15:01;6.20;;;4.90;;
4634;SDS011;2330;48.158;11.816;2023-05-29T08:17:29;6.00;;;5.40;;
4634;SDS011;2330;48.158;11.816;2023-05-29T08:19:56;8.43;;;5.40;;
4634;SDS011;2330;48.158;11.816;2023-05-29T08:22:27;8.23;;;5.87;;
4634;SDS011;2330;48.158;11.816;2023-05-29T08:24:55;6.33;;;4.90;;
4634;SDS011;2330;48.158;11.816;2023-05-29T08:27:22;8.80;;;5.90;;
4634;SDS011;2330;48.158;11.816;2023-05-29T08:29:48;6.77;;;4.70;;
4634;SDS011;2330;48.158;11.816;2023-05-29T08:32:16;11.27;;;5.13;;
4634;SDS011;2330;48.158;11.816;2023-05-29T08:34:42;7.70;;;5.37;;
4634;SDS011;2330;48.158;11.816;2023-05-29T08:37:11;7.50;;;4.87;;
4634;SDS011;2330;48.158;11.816;2023-05-29T08:39:39;10.40;;;5.23;;
4634;SDS011;2330;48.158;11.816;2023-05-29T08:42:07;7.53;;;5.40;;
4634;SDS011;2330;48.158;11.816;2023-05-29T08:44:39;6.80;;;5.40;;
4634;SDS011;2330;48.158;11.816;2023-05-29T08:47:06;6.03;;;5.00;;
4634;SDS011;2330;48.158;11.816;2023-05-29T08:49:35;10.40;;;5.77;;
4634;SDS011;2330;48.158;11.816;2023-05-29T08:52:09;7.67;;;5.37;;
4634;SDS011;2330;48.158;11.816;2023-05-29T08:54:41;7.40;;;5.83;;
4634;SDS011;2330;48.158;11.816;2023-05-29T08:57:10;10.23;;;5.70;;
4634;SDS011;2330;48.158;11.816;2023-05-29T08:59:39;6.73;;;5.07;;
4634;SDS011;2330;48.158;11.816;2023-05-29T09:02:10;6.20;;;5.10;;
4634;SDS011;2330;48.158;11.816;2023-05-29T09:04:38;10.77;;;5.47;;
4634;SDS011;2330;48.158;11.816;2023-05-29T09:07:07;5.80;;;4.50;;
4634;SDS011;2330;48.158;11.816;2023-05-29T09:09:34;7.03;;;5.10;;
4634;SDS011;2330;48.158;11.816;2023-05-29T09:12:02;8.83;;;4.80;;
4634;SDS011;2330;48.158;11.816;2023-05-29T09:14:36;8.40;;;4.80;;
4634;SDS011;2330;48.158;11.816;2023-05-29T09:17:05;6.00;;;4.73;;
4634;SDS011;2330;48.158;11.816;2023-05-29T09:19:33;6.17;;;4.53;;
4634;SDS011;2330;48.158;11.816;2023-05-29T09:22:01;6.73;;;4.80;;
4634;SDS011;2330;48.158;11.816;2023-05-29T09:24:36;9.30;;;5.77;;
4634;SDS011;2330;48.158;11.816;2023-05-29T09:27:05;6.03;;;5.03;;
4634;SDS011;2330;48.158;11.816;2023-05-29T09:29:52;8.00;;;5.03;;
4634;SDS011;2330;48.158;11.816;2023-05-29T09:32:18;5.90;;;3.77;;
4634;SDS011;2330;48.158;11.816;2023-05-29T09:34:45;10.20;;;4.53;;
4634;SDS011;2330;48.158;11.816;2023-05-29T09:37:13;4.77;;;3.80;;
4634;SDS011;2330;48.158;11.816;2023-05-29T09:42:09;5.00;;;4.30;;
4634;SDS011;2330;48.158;11.816;2023-05-29T09:44:36;6.23;;;4.93;;
4634;SDS011;2330;48.158;11.816;2023-05-29T09:47:03;6.63;;;4.00;;
4634;SDS011;2330;48.158;11.816;2023-05-29T09:49:31;5.97;;;4.50;;
4634;SDS011;2330;48.158;11.816;2023-05-29T09:51:58;4.70;;;4.20;;
4634;SDS011;2330;48.158;11.816;2023-05-29T09:54:29;4.60;;;3.70;;
4634;SDS011;2330;48.158;11.816;2023-05-29T09:56:57;4.50;;;4.07;;
4634;SDS011;2330;48.158;11.816;2023-05-29T09:59:24;9.90;;;5.17;;
4634;SDS011;2330;48.158;11.816;2023-05-29T10:02:03;3.73;;;3.30;;
4634;SDS011;2330;48.158;11.816;2023-05-29T10:04:31;5.30;;;3.87;;
4634;SDS011;2330;48.158;11.816;2023-05-29T10:07:04;5.20;;;4.47;;
4634;SDS011;2330;48.158;11.816;2023-05-29T10:09:54;6.73;;;4.73;;
4634;SDS011;2330;48.158;11.816;2023-05-29T10:12:26;6.67;;;4.83;;
4634;SDS011;2330;48.158;11.816;2023-05-29T10:14:56;5.40;;;4.30;;
4634;SDS011;2330;48.158;11.816;2023-05-29T10:17:28;6.60;;;4.67;;
4634;SDS011;2330;48.158;11.816;2023-05-29T10:20:00;7.40;;;4.90;;
4634;SDS011;2330;48.158;11.816;2023-05-29T10:22:30;5.63;;;4.17;;
4634;SDS011;2330;48.158;11.816;2023-05-29T10:24:58;8.47;;;4.20;;
4634;SDS011;2330;48.158;11.816;2023-05-29T10:27:25;6.87;;;4.23;;
4634;SDS011;2330;48.158;11.816;2023-05-29T10:29:56;5.77;;;4.07;;
4634;SDS011;2330;48.158;11.816;2023-05-29T10:37:54;4.67;;;4.13;;
4634;SDS011;2330;48.158;11.816;2023-05-29T10:40:29;8.63;;;4.13;;
4634;SDS011;2330;48.158;11.816;2023-05-29T10:42:55;6.17;;;3.53;;
4634;SDS011;2330;48.158;11.816;2023-05-29T10:48:35;5.53;;;3.37;;
4634;SDS011;2330;48.158;11.816;2023-05-29T10:50:55;6.23;;;4.77;;
4634;SDS011;2330;48.158;11.816;2023-05-29T10:53:23;5.93;;;4.10;;
4634;SDS011;2330;48.158;11.816;2023-05-29T10:55:52;4.50;;;3.97;;
4634;SDS011;2330;48.158;11.816;2023-05-29T10:58:21;5.13;;;3.77;;
4634;SDS011;2330;48.158;11.816;2023-05-29T11:00:50;7.40;;;3.97;;
4634;SDS011;2330;48.158;11.816;2023-05-29T11:03:21;5.40;;;4.37;;
4634;SDS011;2330;48.158;11.816;2023-05-29T11:05:58;5.53;;;4.00;;
4634;SDS011;2330;48.158;11.816;2023-05-29T11:11:02;5.97;;;4.37;;
4634;SDS011;2330;48.158;11.816;2023-05-29T11:13:34;5.80;;;4.40;;
4634;SDS011;2330;48.158;11.816;2023-05-29T11:16:21;5.33;;;4.10;;
4634;SDS011;2330;48.158;11.816;2023-05-29T11:19:04;6.43;;;4.30;;
4634;SDS011;2330;48.158;11.816;2023-05-29T11:24:22;6.40;;;3.87;;
4634;SDS011;2330;48.158;11.816;2023-05-29T11:26:53;7.00;;;3.80;;
4634;SDS011;2330;48.158;11.816;2023-05-29T11:29:21;6.87;;;4.30;;
4634;SDS011;2330;48.158;11.816;2023-05-29T11:32:01;5.20;;;4.03;;
4634;SDS011;2330;48.158;11.816;2023-05-29T11:34:30;4.40;;;4.00;;
4634;SDS011;2330;48.158;11.816;2023-05-29T11:36:59;5.07;;;4.20;;
4634;SDS011;2330;48.158;11.816;2023-05-29T11:39:27;4.77;;;3.70;;
4634;SDS011;2330;48.158;11.816;2023-05-29T11:41:55;5.77;;;4.10;;
4634;SDS011;2330;48.158;11.816;2023-05-29T11:44:25;6.53;;;4.27;;
4634;SDS011;2330;48.158;11.816;2023-05-29T11:46:59;5.10;;;3.33;;
4634;SDS011;2330;48.158;11.816;2023-05-29T11:49:30;4.43;;;3.87;;
4634;SDS011;2330;48.158;11.816;2023-05-29T11:52:12;6.20;;;4.60;;
4634;SDS011;2330;48.158;11.816;2023-05-29T11:54:43;6.53;;;4.10;;
4634;SDS011;2330;48.158;11.816;2023-05-29T11:57:21;6.13;;;4.17;;
4634;SDS011;2330;48.158;11.816;2023-05-29T11:59:51;8.00;;;4.50;;
4634;SDS011;2330;48.158;11.816;2023-05-29T12:02:19;4.20;;;3.73;;
4634;SDS011;2330;48.158;11.816;2023-05-29T12:05:05;5.27;;;3.80;;
4634;SDS011;2330;48.158;11.816;2023-05-29T12:07:36;6.00;;;3.90;;
4634;SDS011;2330;48.158;11.816;2023-05-29T12:10:10;5.07;;;3.70;;
4634;SDS011;2330;48.158;11.816;2023-05-29T12:12:36;5.00;;;4.50;;
4634;SDS011;2330;48.158;11.816;2023-05-29T12:15:03;6.07;;;3.83;;
4634;SDS011;2330;48.158;11.816;2023-05-29T12:17:33;7.87;;;4.30;;
4634;SDS011;2330;48.158;11.816;2023-05-29T12:20:01;6.97;;;4.27;;
4634;SDS011;2330;48.158;11.816;2023-05-29T12:22:32;5.97;;;4.60;;
4634;SDS011;2330;48.158;11.816;2023-05-29T12:25:07;7.63;;;4.53;;
4634;SDS011;2330;48.158;11.816;2023-05-29T12:27:47;11.97;;;4.30;;
4634;SDS011;2330;48.158;11.816;2023-05-29T12:30:19;4.80;;;4.30;;
4634;SDS011;2330;48.158;11.816;2023-05-29T12:32:57;4.90;;;3.57;;
4634;SDS011;2330;48.158;11.816;2023-05-29T12:35:27;5.43;;;3.93;;
4634;SDS011;2330;48.158;11.816;2023-05-29T12:37:56;3.70;;;3.40;;
4634;SDS011;2330;48.158;11.816;2023-05-29T12:40:24;4.70;;;3.70;;
4634;SDS011;2330;48.158;11.816;2023-05-29T12:42:58;3.50;;;3.17;;
4634;SDS011;2330;48.158;11.816;2023-05-29T12:45:33;3.97;;;3.50;;
4634;SDS011;2330;48.158;11.816;2023-05-29T12:48:04;4.63;;;3.60;;
4634;SDS011;2330;48.158;11.816;2023-05-29T12:50:35;6.47;;;3.83;;
4634;SDS011;2330;48.158;11.816;2023-05-29T12:53:09;6.10;;;3.67;;
4634;SDS011;2330;48.158;11.816;2023-05-29T12:55:42;3.30;;;2.97;;
4634;SDS011;2330;48.158;11.816;2023-05-29T12:58:11;4.10;;;3.70;;
4634;SDS011;2330;48.158;11.816;2023-05-29T13:00:39;4.50;;;3.40;;
4634;SDS011;2330;48.158;11.816;2023-05-29T13:03:08;3.93;;;3.43;;
4634;SDS011;2330;48.158;11.816;2023-05-29T13:05:37;4.50;;;3.37;;
4634;SDS011;2330;48.158;11.816;2023-05-29T13:08:04;5.33;;;3.70;;
4634;SDS011;2330;48.158;11.816;2023-05-29T13:10:32;4.10;;;3.40;;
4634;SDS011;2330;48.158;11.816;2023-05-29T13:13:01;5.17;;;3.77;;
4634;SDS011;2330;48.158;11.816;2023-05-29T13:15:28;4.47;;;3.63;;
4634;SDS011;2330;48.158;11.816;2023-05-29T13:17:55;3.40;;;3.03;;
4634;SDS011;2330;48.158;11.816;2023-05-29T13:20:22;5.90;;;3.50;;
4634;SDS011;2330;48.158;11.816;2023-05-29T13:22:49;7.07;;;4.37;;
4634;SDS011;2330;48.158;11.816;2023-05-29T13:25:16;8.50;;;3.63;;
4634;SDS011;2330;48.158;11.816;2023-05-29T13:27:46;4.73;;;3.80;;
4634;SDS011;2330;48.158;11.816;2023-05-29T13:30:14;5.13;;;4.03;;
4634;SDS011;2330;48.158;11.816;2023-05-29T13:32:42;4.63;;;4.07;;
4634;SDS011;2330;48.158;11.816;2023-05-29T13:35:09;5.30;;;4.00;;
4634;SDS011;2330;48.158;11.816;2023-05-29T13:37:37;5.03;;;3.90;;
4634;SDS011;2330;48.158;11.816;2023-05-29T13:40:04;5.80;;;4.30;;
4634;SDS011;2330;48.158;11.816;2023-05-29T13:42:32;6.63;;;3.70;;
4634;SDS011;2330;48.158;11.816;2023-05-29T13:44:59;4.40;;;4.00;;
4634;SDS011;2330;48.158;11.816;2023-05-29T13:47:26;3.60;;;3.30;;
4634;SDS011;2330;48.158;11.816;2023-05-29T13:49:58;3.80;;;3.20;;
4634;SDS011;2330;48.158;11.816;2023-05-29T13:52:25;4.23;;;3.27;;
4634;SDS011;2330;48.158;11.816;2023-05-29T13:54:52;3.33;;;3.00;;
4634;SDS011;2330;48.158;11.816;2023-05-29T13:57:19;4.93;;;3.77;;
4634;SDS011;2330;48.158;11.816;2023-05-29T13:59:46;5.37;;;3.50;;
4634;SDS011;2330;48.158;11.816;2023-05-29T14:02:13;3.80;;;3.50;;
4634;SDS011;2330;48.158;11.816;2023-05-29T14:04:40;4.20;;;3.80;;
4634;SDS011;2330;48.158;11.816;2023-05-29T14:07:08;4.70;;;3.60;;
4634;SDS011;2330;48.158;11.816;2023-05-29T14:09:35;5.27;;;4.27;;
4634;SDS011;2330;48.158;11.816;2023-05-29T14:12:02;5.83;;;5.30;;
4634;SDS011;2330;48.158;11.816;2023-05-29T14:14:29;6.50;;;4.07;;
4634;SDS011;2330;48.158;11.816;2023-05-29T14:16:55;7.33;;;4.20;;
4634;SDS011;2330;48.158;11.816;2023-05-29T14:19:22;5.73;;;4.27;;
4634;SDS011;2330;48.158;11.816;2023-05-29T14:21:49;7.87;;;4.10;;
4634;SDS011;2330;48.158;11.816;2023-05-29T14:24:17;4.40;;;3.67;;
4634;SDS011;2330;48.158;11.816;2023-05-29T14:26:44;4.47;;;3.57;;
4634;SDS011;2330;48.158;11.816;2023-05-29T14:29:13;7.90;;;3.50;;
4634;SDS011;2330;48.158;11.816;2023-05-29T14:31:41;4.20;;;3.37;;
4634;SDS011;2330;48.158;11.816;2023-05-29T14:34:10;4.03;;;3.50;;
4634;SDS011;2330;48.158;11.816;2023-05-29T14:36:38;4.30;;;3.50;;
4634;SDS011;2330;48.158;11.816;2023-05-29T14:39:06;3.93;;;3.53;;
4634;SDS011;2330;48.158;11.816;2023-05-29T14:41:33;4.23;;;3.83;;
4634;SDS011;2330;48.158;11.816;2023-05-29T14:44:01;5.50;;;3.90;;
4634;SDS011;2330;48.158;11.816;2023-05-29T14:46:28;4.13;;;3.70;;
4634;SDS011;2330;48.158;11.816;2023-05-29T14:48:58;5.63;;;3.37;;
4634;SDS011;2330;48.158;11.816;2023-05-29T14:51:26;6.43;;;3.60;;
4634;SDS011;2330;48.158;11.816;2023-05-29T14:53:53;5.07;;;4.27;;
4634;SDS011;2330;48.158;11.816;2023-05-29T14:56:20;3.87;;;3.20;;
4634;SDS011;2330;48.158;11.816;2023-05-29T14:58:48;3.70;;;3.40;;
4634;SDS011;2330;48.158;11.816;2023-05-29T15:01:15;6.67;;;4.20;;
4634;SDS011;2330;48.158;11.816;2023-05-29T15:03:42;11.63;;;4.20;;
4634;SDS011;2330;48.158;11.816;2023-05-29T15:06:10;4.50;;;3.30;;
4634;SDS011;2330;48.158;11.816;2023-05-29T15:08:40;5.67;;;3.50;;
4634;SDS011;2330;48.158;11.816;2023-05-29T15:11:09;5.70;;;3.60;;
4634;SDS011;2330;48.158;11.816;2023-05-29T15:13:39;7.20;;;3.90;;
4634;SDS011;2330;48.158;11.816;2023-05-29T15:16:05;5.40;;;3.30;;
4634;SDS011;2330;48.158;11.816;2023-05-29T15:18:33;4.60;;;4.00;;
4634;SDS011;2330;48.158;11.816;2023-05-29T15:21:00;4.40;;;3.27;;
4634;SDS011;2330;48.158;11.816;2023-05-29T15:23:29;4.17;;;3.77;;
4634;SDS011;2330;48.158;11.816;2023-05-29T15:25:56;3.63;;;2.97;;
4634;SDS011;2330;48.158;11.816;2023-05-29T15:28:24;4.97;;;3.57;;